M I D A S
Marine Information and Data Acquisition System
Tripno 1027 of the Zeeleeuw from 2006-01-23 07:41:22 to 2006-01-23 14:12:29
Back to CruiseResearch ActivitiesStationsMapUnderway DataData graphs

EquipmentUnitsComment
TimeDGPSUTC
LatitudeDGPSDM.mWGS84
LongitudeDGPSDM.mWGS84
HeadingGyrodeg 
SOGDGPSknotsSpeed over ground
COGDGPSdegCourse over ground
DepthEcho soundermeters200 kHz
Missing or incorrect values are displayed as -999
Navigation data collected by the RV Zeeleeuw from 2006-01-23 07:10:03 to 2006-01-23 14:18:58
Time Latitude Longitude Heading SOG COG Depth
2006-01-23 07:11:08 51°13.598 2°56.096 125.6 -999 145 -999
2006-01-23 07:12:08 51°13.598 2°56.096 125.7 -999 114 -999
2006-01-23 07:13:10 51°13.599 2°56.095 125.7 -999 162 -999
2006-01-23 07:14:10 51°13.599 2°56.094 126.1 -999 211 7.5
2006-01-23 07:15:07 51°13.599 2°56.095 126.1 0.1 133 5.6
2006-01-23 07:16:07 51°13.599 2°56.095 126.3 -999 145 7.4
2006-01-23 07:17:07 51°13.599 2°56.094 126.1 -999 278 7.5
2006-01-23 07:18:07 51°13.598 2°56.095 126.1 -999 193 7.5
2006-01-23 07:19:07 51°13.6 2°56.095 126.2 0.2 333 5.6
2006-01-23 07:20:06 51°13.599 2°56.095 125.9 -999 147 7.5
2006-01-23 07:21:07 51°13.598 2°56.094 125.9 -999 159 7.5
2006-01-23 07:22:06 51°13.599 2°56.093 126 -999 163 7.5
2006-01-23 07:23:05 51°13.599 2°56.094 126 -999 146 7.4
2006-01-23 07:24:07 51°13.6 2°56.094 126.1 -999 190 7.4
2006-01-23 07:25:07 51°13.601 2°56.094 126.2 -999 170 7.4
2006-01-23 07:26:07 51°13.6 2°56.095 126.2 -999 141 7.4
2006-01-23 07:27:05 51°13.6 2°56.095 126.2 -999 146 7.5
2006-01-23 07:28:07 51°13.6 2°56.094 126.1 -999 318 7.4
2006-01-23 07:29:07 51°13.599 2°56.096 126 -999 145 7.4
2006-01-23 07:30:07 51°13.599 2°56.095 126 -999 309 5.6
2006-01-23 07:31:07 51°13.599 2°56.095 126 -999 140 7.4
2006-01-23 07:32:07 51°13.599 2°56.095 126 -999 252 7.3
2006-01-23 07:33:07 51°13.599 2°56.096 126 -999 146 7.4
2006-01-23 07:34:06 51°13.599 2°56.096 126 -999 139 7.4
2006-01-23 07:35:07 51°13.599 2°56.096 126 0.1 141 7.4
2006-01-23 07:36:05 51°13.6 2°56.095 126.4 -999 303 7.3
2006-01-23 07:37:06 51°13.6 2°56.095 126.4 -999 121 7.3
2006-01-23 07:38:06 51°13.6 2°56.095 126.4 -999 134 7.3
2006-01-23 07:39:05 51°13.599 2°56.096 125.4 -999 100 7.3
2006-01-23 07:40:06 51°13.598 2°56.097 125 -999 306 7.2
2006-01-23 07:41:07 51°13.597 2°56.097 118.7 0.1 194 7.2
2006-01-23 07:42:07 51°13.604 2°56.064 117.2 2.5 296 -999
2006-01-23 07:43:07 51°13.625 2°55.985 116.8 3.7 293 -999
2006-01-23 07:44:07 51°13.661 2°55.874 123.2 5.3 299 -999
2006-01-23 07:45:05 51°13.698 2°55.758 109.5 4.2 289 14.6
2006-01-23 07:46:05 51°13.708 2°55.71 64.7 0.6 358 13.3
2006-01-23 07:47:07 51°13.737 2°55.71 359.1 2.8 346 11.7
2006-01-23 07:48:05 51°13.802 2°55.659 337.9 5.7 333 11.3
2006-01-23 07:49:05 51°13.899 2°55.579 336.3 7 332 11.2
2006-01-23 07:50:05 51°14.007 2°55.496 341.1 7.2 336 11.2
2006-01-23 07:51:07 51°14.114 2°55.421 341.3 7.1 336 11.3
2006-01-23 07:52:05 51°14.231 2°55.304 326.8 9.7 320 11.2
2006-01-23 07:53:07 51°14.347 2°55.09 312.3 10.9 306 11.3
2006-01-23 07:54:05 51°14.475 2°54.884 323.3 11.8 319 11.2
2006-01-23 07:55:05 51°14.656 2°54.702 335.2 13.3 331 10.6
2006-01-23 07:56:05 51°14.849 2°54.526 334.8 13.3 332 10
2006-01-23 07:57:07 51°15.05 2°54.347 333.4 13.4 330 9.4
2006-01-23 07:58:07 51°15.244 2°54.173 335.8 13.4 330 10
2006-01-23 07:59:05 51°15.432 2°54.001 335.8 13.6 331 10.7
2006-01-23 08:00:05 51°15.629 2°53.824 335.6 13.7 331 11.5
2006-01-23 08:01:05 51°15.825 2°53.646 335.4 13.6 331 12
2006-01-23 08:02:07 51°16.028 2°53.462 335.5 13.6 331 12.4
2006-01-23 08:03:07 51°16.224 2°53.285 334.5 13.5 331 12.7
2006-01-23 08:04:05 51°16.417 2°53.126 337.9 13.6 333 12.9
2006-01-23 08:05:07 51°16.625 2°52.958 337.5 13.5 334 12.6
2006-01-23 08:06:05 51°16.818 2°52.8 337.2 13.5 334 10.3
2006-01-23 08:07:05 51°17.015 2°52.624 335.3 13.7 331 10.9
2006-01-23 08:08:05 51°17.21 2°52.442 333.8 13.6 329 10.9
2006-01-23 08:09:07 51°17.403 2°52.23 326.3 13.6 320 11.3
2006-01-23 08:10:07 51°17.54 2°51.95 306.8 13.5 303 11.4
2006-01-23 08:11:07 51°17.65 2°51.638 300.6 13.4 297 10.8
2006-01-23 08:12:07 51°17.754 2°51.323 300.7 13.5 297 10.9
2006-01-23 08:13:07 51°17.857 2°51.004 299.1 13.5 295 12
2006-01-23 08:14:05 51°17.955 2°50.697 299.7 13.3 296 13.3
2006-01-23 08:15:05 51°18.051 2°50.376 299 13.3 294 14.2
2006-01-23 08:16:07 51°18.146 2°50.04 297.7 13.3 293 14.6
2006-01-23 08:17:06 51°18.235 2°49.722 297.7 13.2 293 14.4
2006-01-23 08:18:05 51°18.325 2°49.402 298.7 13.3 295 12.2
2006-01-23 08:19:07 51°18.417 2°49.067 298.9 13.3 294 11.2
2006-01-23 08:20:06 51°18.51 2°48.744 297.8 13.5 294 11.7
2006-01-23 08:21:05 51°18.601 2°48.423 297.9 13.5 294 13.1
2006-01-23 08:22:06 51°18.695 2°48.09 298 13.5 295 14.8
2006-01-23 08:23:07 51°18.792 2°47.759 299.1 13.5 296 16.8
2006-01-23 08:24:06 51°18.884 2°47.444 298.3 13.3 296 19.2
2006-01-23 08:25:07 51°18.978 2°47.116 298.6 13.3 295 20.8
2006-01-23 08:26:07 51°19.072 2°46.793 298 13.4 295 21.6
2006-01-23 08:27:05 51°19.164 2°46.481 297.5 13.3 296 21.6
2006-01-23 08:28:06 51°19.254 2°46.151 295.1 13.2 292 20.4
2006-01-23 08:29:05 51°19.337 2°45.832 295 13.3 292 17.4
2006-01-23 08:30:05 51°19.425 2°45.508 296.6 13.2 293 12.8
2006-01-23 08:31:05 51°19.509 2°45.182 297.2 13.3 293 14.3
2006-01-23 08:32:05 51°19.6 2°44.858 296.4 13.2 293 21.9
2006-01-23 08:33:05 51°19.686 2°44.534 296.6 13.3 293 23
2006-01-23 08:34:05 51°19.777 2°44.209 297.2 13.4 294 23.9
2006-01-23 08:35:07 51°19.871 2°43.874 295.7 13.3 294 24.9
2006-01-23 08:36:05 51°19.961 2°43.561 297.3 13.4 296 27
2006-01-23 08:37:05 51°20.053 2°43.238 296.6 13.4 294 26.7
2006-01-23 08:38:05 51°20.144 2°42.915 295.4 13.2 296 25.9
2006-01-23 08:39:05 51°20.23 2°42.588 295.9 13.4 293 22.6
2006-01-23 08:40:05 51°20.314 2°42.258 294.2 13.4 291 21.1
2006-01-23 08:41:05 51°20.394 2°41.927 293.9 13.4 292 18.4
2006-01-23 08:42:05 51°20.476 2°41.596 294.5 13.4 292 21.4
2006-01-23 08:43:05 51°20.555 2°41.264 291.8 13.4 289 25.8
2006-01-23 08:44:07 51°20.634 2°40.92 292.2 13.4 290 27.3
2006-01-23 08:45:05 51°20.692 2°40.59 281.6 13.3 278 27.3
2006-01-23 08:46:05 51°20.725 2°40.24 279.5 13.3 277 27
2006-01-23 08:47:05 51°20.753 2°39.89 275.2 13.2 273 26.1
2006-01-23 08:48:05 51°20.77 2°39.537 276.1 13.3 275 25.4
2006-01-23 08:49:07 51°20.787 2°39.174 275.3 13.3 275 25.3
2006-01-23 08:50:05 51°20.806 2°38.832 275.8 13.3 274 24.9
2006-01-23 08:51:07 51°20.823 2°38.466 276.2 13.4 274 23.7
2006-01-23 08:52:05 51°20.84 2°38.123 276.4 13.5 275 24
2006-01-23 08:53:07 51°20.857 2°37.757 274 13.3 272 23.8
2006-01-23 08:54:05 51°20.867 2°37.415 274 13.2 274 24.5
2006-01-23 08:55:05 51°20.88 2°37.064 275.8 13.3 274 22.1
2006-01-23 08:56:05 51°20.894 2°36.713 275.1 13.3 273 22.9
2006-01-23 08:57:05 51°20.908 2°36.361 274.4 13.2 273 24.3
2006-01-23 08:58:05 51°20.923 2°36.01 274.8 13.2 274 23.4
2006-01-23 08:59:05 51°20.938 2°35.659 275.3 13.3 273 28.4
2006-01-23 09:00:05 51°20.955 2°35.307 276.4 13.2 275 30.3
2006-01-23 09:01:05 51°20.972 2°34.957 274.6 13.3 274 31.8
2006-01-23 09:02:07 51°20.992 2°34.594 275.8 13.2 276 31.1
2006-01-23 09:03:05 51°21.019 2°34.257 277.7 13.3 279 31
2006-01-23 09:04:05 51°21.045 2°33.909 277.1 13.2 277 30.5
2006-01-23 09:05:07 51°21.14 2°33.595 315.7 13.3 320 32.8
2006-01-23 09:06:05 51°21.322 2°33.405 331.2 13.6 329 29.9
2006-01-23 09:07:07 51°21.52 2°33.207 330.4 13.6 328 25.9
2006-01-23 09:08:06 51°21.714 2°33.031 335.8 13.6 332 22.4
2006-01-23 09:09:05 51°21.91 2°32.862 335.1 13.7 332 26.1
2006-01-23 09:10:05 51°22.109 2°32.69 335.5 13.5 331 30.2
2006-01-23 09:11:07 51°22.314 2°32.516 335.5 13.6 332 31.2
2006-01-23 09:12:06 51°22.483 2°32.298 311 13.2 307 31.1
2006-01-23 09:13:05 51°22.549 2°31.974 277.9 13.3 275 30.5
2006-01-23 09:14:07 51°22.568 2°31.609 277.5 13.4 275 29.9
2006-01-23 09:15:05 51°22.581 2°31.266 274.4 13.4 272 30.6
2006-01-23 09:16:07 51°22.589 2°30.898 272.3 13.3 270 30.5
2006-01-23 09:17:05 51°22.593 2°30.554 272.2 13.4 271 31.1
2006-01-23 09:18:07 51°22.595 2°30.188 272.9 13.2 271 31.3
2006-01-23 09:19:05 51°22.587 2°29.847 268.9 13.3 268 32.5
2006-01-23 09:20:05 51°22.575 2°29.495 268.5 13.3 267 33
2006-01-23 09:21:07 51°22.565 2°29.131 269.3 13.4 269 33
2006-01-23 09:22:05 51°22.556 2°28.789 268.6 13.3 267 33.1
2006-01-23 09:23:07 51°22.545 2°28.427 270.4 13.2 268 33.1
2006-01-23 09:24:05 51°22.544 2°28.087 271.4 13.3 270 33.5
2006-01-23 09:25:07 51°22.545 2°27.721 272.2 13.3 271 34.2
2006-01-23 09:26:05 51°22.543 2°27.378 270.5 13.3 267 33.8
2006-01-23 09:27:07 51°22.54 2°27.011 269.8 13.2 268 33.8
2006-01-23 09:28:07 51°22.538 2°26.656 270.6 13.4 269 33.1
2006-01-23 09:29:07 51°22.539 2°26.3 272.7 13.4 271 32
2006-01-23 09:30:07 51°22.577 2°25.953 293.9 13.5 291 28.2
2006-01-23 09:31:05 51°22.669 2°25.639 302.8 13.5 300 18.7
2006-01-23 09:32:07 51°22.829 2°25.373 329.2 13.5 329 25.8
2006-01-23 09:33:06 51°23.045 2°25.343 12.7 13.5 8 31.6
2006-01-23 09:34:07 51°23.272 2°25.41 17.4 13.7 12 32.6
2006-01-23 09:35:05 51°23.489 2°25.483 17.2 13.8 12 33
2006-01-23 09:36:07 51°23.72 2°25.557 17.3 13.7 11 33.3
2006-01-23 09:37:05 51°23.936 2°25.625 17.1 13.7 11 33.2
2006-01-23 09:38:05 51°24.161 2°25.692 16.5 13.8 10 32.8
2006-01-23 09:39:07 51°24.395 2°25.759 16.1 13.8 10 32.8
2006-01-23 09:40:05 51°24.613 2°25.821 16.3 13.6 10 34.4
2006-01-23 09:41:07 51°24.845 2°25.884 16.4 13.6 10 34.1
2006-01-23 09:42:05 51°25.061 2°25.94 16 13.6 9 33.8
2006-01-23 09:43:07 51°25.29 2°25.997 15.1 13.6 8 33.4
2006-01-23 09:44:06 51°25.509 2°26.053 16.2 13.6 8 33.6
2006-01-23 09:45:06 51°25.732 2°26.111 16.1 13.6 9 32.7
2006-01-23 09:46:07 51°25.96 2°26.099 358.4 13.6 351 31.3
2006-01-23 09:47:05 51°26.177 2°26.051 359 13.6 353 29.6
2006-01-23 09:48:07 51°26.41 2°26.004 0.4 13.7 354 23.5
2006-01-23 09:49:06 51°26.632 2°25.961 359.6 13.6 354 25.2
2006-01-23 09:50:07 51°26.862 2°25.917 359.9 13.7 355 33.1
2006-01-23 09:51:06 51°27.085 2°25.876 359.4 13.6 354 33
2006-01-23 09:52:05 51°27.305 2°25.833 359.8 13.5 353 33
2006-01-23 09:53:07 51°27.537 2°25.79 -999 13.7 354 33.4
2006-01-23 09:54:05 51°27.757 2°25.752 0.4 13.8 354 33.8
2006-01-23 09:55:07 51°27.992 2°25.711 0.1 13.7 354 35.2
2006-01-23 09:56:06 51°28.216 2°25.671 0.4 13.8 354 35.2
2006-01-23 09:57:07 51°28.446 2°25.631 359.7 13.7 353 35.8
2006-01-23 09:58:06 51°28.669 2°25.592 0.2 13.6 354 34
2006-01-23 09:59:06 51°28.895 2°25.55 0.6 13.6 354 33.2
2006-01-23 10:00:06 51°29.121 2°25.509 -999 13.7 354 32.1
2006-01-23 10:01:07 51°29.351 2°25.464 0.1 13.7 353 28.1
2006-01-23 10:02:07 51°29.576 2°25.421 0.4 13.7 354 28.5
2006-01-23 10:03:07 51°29.802 2°25.381 0.5 13.7 353 29.5
2006-01-23 10:04:07 51°30.028 2°25.341 0.3 13.6 354 29
2006-01-23 10:05:06 51°30.25 2°25.332 7.9 13.5 1 34.3
2006-01-23 10:06:07 51°30.478 2°25.353 11 13.4 5 37.4
2006-01-23 10:07:07 51°30.7 2°25.394 19.6 13.4 14 38.2
2006-01-23 10:08:07 51°30.916 2°25.493 22.2 13.4 16 38.5
2006-01-23 10:09:07 51°31.13 2°25.587 22.9 13.5 16 39.3
2006-01-23 10:10:07 51°31.342 2°25.697 28.2 13.4 24 39
2006-01-23 10:11:07 51°31.542 2°25.853 32.5 13.4 25 35
2006-01-23 10:12:06 51°31.739 2°26.004 33 13.4 27 38.5
2006-01-23 10:13:07 51°31.941 2°26.163 33.7 13.3 27 37.6
2006-01-23 10:14:07 51°32.138 2°26.327 34.1 13.3 27 35.7
2006-01-23 10:15:07 51°32.331 2°26.5 37.6 13.3 31 36.9
2006-01-23 10:16:07 51°32.52 2°26.682 38.1 13.2 32 37.7
2006-01-23 10:17:07 51°32.709 2°26.867 37.6 13.3 30 36.9
2006-01-23 10:18:07 51°32.901 2°27.051 37 13.3 31 36.7
2006-01-23 10:19:06 51°33.088 2°27.231 37.1 13.3 31 36.2
2006-01-23 10:20:07 51°33.281 2°27.418 37.4 13.3 32 36
2006-01-23 10:21:06 51°33.468 2°27.6 36.7 13.4 31 36.9
2006-01-23 10:22:07 51°33.662 2°27.786 37.5 13.2 31 34.3
2006-01-23 10:23:05 51°33.845 2°27.965 37.7 13.4 32 33.8
2006-01-23 10:24:07 51°34.041 2°28.155 36.7 13.3 31 33.2
2006-01-23 10:25:06 51°34.227 2°28.335 37.9 13.2 32 34.3
2006-01-23 10:26:07 51°34.417 2°28.525 37.7 13.2 31 33.2
2006-01-23 10:27:07 51°34.606 2°28.709 37 13.3 31 34.5
2006-01-23 10:28:07 51°34.795 2°28.893 36.5 13.2 31 31.2
2006-01-23 10:29:07 51°34.983 2°29.078 38 13.3 32 32.7
2006-01-23 10:30:07 51°35.17 2°29.263 37.7 13.2 32 33.8
2006-01-23 10:31:07 51°35.358 2°29.449 37 13.2 31 29.7
2006-01-23 10:32:06 51°35.541 2°29.632 37.3 13.1 32 36.6
2006-01-23 10:33:05 51°35.727 2°29.813 36.5 13.3 31 36.4
2006-01-23 10:34:07 51°35.92 2°30.003 36 13.1 30 36.6
2006-01-23 10:35:07 51°36.106 2°30.189 37.7 13.2 32 34.5
2006-01-23 10:36:07 51°36.293 2°30.375 37.5 13.2 32 35.4
2006-01-23 10:37:07 51°36.48 2°30.562 37.5 13.2 32 35.8
2006-01-23 10:38:07 51°36.667 2°30.75 37.7 13.2 32 35
2006-01-23 10:39:06 51°36.851 2°30.935 36.7 13.2 32 36.1
2006-01-23 10:40:07 51°37.04 2°31.124 37.3 13.1 32 36.9
2006-01-23 10:41:07 51°37.227 2°31.311 37.3 13.2 32 38.2
2006-01-23 10:42:07 51°37.416 2°31.495 37.1 13.2 32 37.5
2006-01-23 10:43:07 51°37.603 2°31.679 36.7 13.2 32 37.9
2006-01-23 10:44:06 51°37.788 2°31.859 37.4 13.1 32 37.9
2006-01-23 10:45:07 51°37.978 2°32.046 37.3 13.2 31 39.8
2006-01-23 10:46:07 51°38.165 2°32.229 37.1 13.2 32 39.4
2006-01-23 10:47:07 51°38.353 2°32.414 37.2 13.2 31 40.2
2006-01-23 10:48:07 51°38.541 2°32.602 37.7 13.3 32 39.8
2006-01-23 10:49:07 51°38.728 2°32.784 37.1 13.1 31 41.8
2006-01-23 10:50:07 51°38.915 2°32.968 37.3 13.2 31 40.1
2006-01-23 10:51:07 51°39.102 2°33.153 36.8 13.2 32 40.3
2006-01-23 10:52:07 51°39.29 2°33.336 37 13.2 32 39.5
2006-01-23 10:53:07 51°39.47 2°33.537 40.6 13.2 35 40.5
2006-01-23 10:54:07 51°39.651 2°33.738 41.1 13.1 35 38.6
2006-01-23 10:55:07 51°39.832 2°33.939 40 13.2 34 42.2
2006-01-23 10:56:05 51°40.006 2°34.133 40.7 13.2 35 37
2006-01-23 10:57:07 51°40.193 2°34.339 40.2 13.1 34 36.6
2006-01-23 10:58:07 51°40.374 2°34.539 40.2 13.3 35 37.3
2006-01-23 10:59:07 51°40.555 2°34.736 39.9 13.1 34 34.6
2006-01-23 11:00:07 51°40.718 2°34.965 51.2 12.9 45 34.4
2006-01-23 11:01:07 51°40.851 2°35.235 64.7 12.8 60 33.1
2006-01-23 11:02:05 51°40.935 2°35.536 74.3 12.7 70 32.2
2006-01-23 11:03:07 51°40.978 2°35.881 86 12.7 82 26
2006-01-23 11:04:07 51°40.988 2°36.214 100.3 12.5 99 22.3
2006-01-23 11:05:07 51°40.93 2°36.536 109 12.7 107 24.7
2006-01-23 11:06:07 51°40.877 2°36.866 107.4 12.8 105 32.5
2006-01-23 11:07:07 51°40.814 2°37.193 112.6 12.8 110 35.9
2006-01-23 11:08:07 51°40.725 2°37.503 117.9 12.7 115 37.9
2006-01-23 11:09:07 51°40.639 2°37.816 117.6 12.8 114 39
2006-01-23 11:10:07 51°40.551 2°38.129 117.9 12.8 115 40.3
2006-01-23 11:11:07 51°40.457 2°38.437 121.3 12.9 118 39.8
2006-01-23 11:12:07 51°40.352 2°38.738 121.7 12.9 119 41
2006-01-23 11:13:07 51°40.248 2°39.038 121.8 12.8 119 41.7
2006-01-23 11:14:07 51°40.146 2°39.339 121.6 12.8 117 39.7
2006-01-23 11:15:07 51°40.037 2°39.638 124.8 12.9 122 37.3
2006-01-23 11:16:07 51°39.923 2°39.929 124.1 12.9 122 35.5
2006-01-23 11:17:07 51°39.81 2°40.222 123.9 12.8 121 33.6
2006-01-23 11:18:07 51°39.696 2°40.514 124.6 12.9 123 33
2006-01-23 11:19:07 51°39.581 2°40.805 124.3 12.9 122 35.7
2006-01-23 11:20:05 51°39.467 2°41.081 130.6 12.9 132 30.5
2006-01-23 11:21:07 51°39.304 2°41.32 139.9 12.8 138 16.8
2006-01-23 11:22:07 51°39.145 2°41.549 138.2 12.6 137 20.9
2006-01-23 11:23:07 51°38.967 2°41.735 151.8 12.8 156 22.3
2006-01-23 11:24:07 51°38.765 2°41.862 159.4 13.1 158 22.5
2006-01-23 11:25:07 51°38.554 2°41.941 175.9 13.2 175 25.3
2006-01-23 11:26:07 51°38.335 2°41.957 178.5 13.2 177 26.4
2006-01-23 11:27:05 51°38.121 2°41.955 183.6 13.4 182 28.8
2006-01-23 11:28:07 51°37.91 2°41.825 214.3 13.5 213 27.4
2006-01-23 11:29:07 51°37.74 2°41.585 225.2 13.6 223 18.6
2006-01-23 11:30:07 51°37.59 2°41.306 236 13.9 233 20.5
2006-01-23 11:31:07 51°37.486 2°40.983 258.4 13.7 255 17
2006-01-23 11:32:05 51°37.478 2°40.627 277.8 13.8 271 23
2006-01-23 11:33:07 51°37.478 2°40.242 275.4 14.1 270 27.4
2006-01-23 11:34:07 51°37.474 2°39.872 275.5 13.8 270 32.9
2006-01-23 11:35:07 51°37.477 2°39.506 276.9 13.7 271 37.1
2006-01-23 11:36:07 51°37.481 2°39.138 277.8 13.8 273 38.8
2006-01-23 11:37:07 51°37.497 2°38.771 278.8 13.7 274 40.7
2006-01-23 11:38:07 51°37.509 2°38.407 277.7 13.6 271 36.9
2006-01-23 11:39:07 51°37.52 2°38.039 277.2 13.6 273 37
2006-01-23 11:40:07 51°37.522 2°37.673 275.9 13.7 270 36.8
2006-01-23 11:41:07 51°37.524 2°37.305 275.8 13.7 270 39.4
2006-01-23 11:42:07 51°37.527 2°36.936 277.7 13.9 271 38.2
2006-01-23 11:43:07 51°37.532 2°36.567 276.6 13.9 272 38.1
2006-01-23 11:44:07 51°37.534 2°36.195 276.7 14 270 37.9
2006-01-23 11:45:07 51°37.522 2°35.831 265.4 13.6 257 36.9
2006-01-23 11:46:07 51°37.442 2°35.489 248 13.6 242 35
2006-01-23 11:47:07 51°37.331 2°35.165 243.4 14 242 32
2006-01-23 11:48:07 51°37.221 2°34.837 246.9 13.9 242 28.2
2006-01-23 11:49:07 51°37.111 2°34.507 245.5 13.9 242 23.4
2006-01-23 11:50:07 51°36.992 2°34.188 236.7 13.9 234 16.8
2006-01-23 11:51:07 51°36.804 2°33.972 209.7 13.8 209 23.8
2006-01-23 11:52:07 51°36.601 2°33.806 206.6 13.7 203 25.7
2006-01-23 11:53:07 51°36.395 2°33.649 207 13.6 207 29.2
2006-01-23 11:54:07 51°36.183 2°33.515 199.8 13.7 199 29.7
2006-01-23 11:55:07 51°35.969 2°33.39 200.5 13.7 202 31.3
2006-01-23 11:56:07 51°35.756 2°33.259 202.4 13.7 201 32.5
2006-01-23 11:57:07 51°35.542 2°33.134 200.5 13.7 200 30.9
2006-01-23 11:58:07 51°35.328 2°33.005 200.8 13.5 199 29.9
2006-01-23 11:59:07 51°35.113 2°32.889 199.6 13.7 198 28.8
2006-01-23 12:00:07 51°34.898 2°32.775 200.3 13.7 199 27.9
2006-01-23 12:01:07 51°34.681 2°32.658 199.1 13.6 201 26.3
2006-01-23 12:02:07 51°34.477 2°32.498 206 13.7 206 24.6
2006-01-23 12:03:07 51°34.265 2°32.365 199.9 13.6 198 24.7
2006-01-23 12:04:07 51°34.05 2°32.25 198.1 13.7 197 25.2
2006-01-23 12:05:07 51°33.833 2°32.135 196.4 13.7 195 23.2
2006-01-23 12:06:07 51°33.615 2°32.027 199 13.6 199 24.4
2006-01-23 12:07:07 51°33.396 2°31.921 193.1 13.7 196 26.3
2006-01-23 12:08:07 51°33.178 2°31.814 192.3 13.4 189 23.8
2006-01-23 12:09:07 51°32.955 2°31.816 176.5 13.5 177 24.5
2006-01-23 12:10:07 51°32.731 2°31.832 175.4 13.5 178 22
2006-01-23 12:11:07 51°32.506 2°31.839 177.3 13.6 177 22.3
2006-01-23 12:12:07 51°32.28 2°31.85 179.1 13.7 180 31.6
2006-01-23 12:13:07 51°32.055 2°31.86 176.3 13.5 175 33
2006-01-23 12:14:07 51°31.829 2°31.878 177 13.5 181 34
2006-01-23 12:15:07 51°31.602 2°31.888 175.9 13.5 178 34
2006-01-23 12:16:07 51°31.384 2°31.953 156.7 13.1 156 34.8
2006-01-23 12:17:07 51°31.192 2°32.118 152.3 13.2 153 34
2006-01-23 12:18:07 51°31.002 2°32.297 147.7 13.3 150 33.5
2006-01-23 12:19:07 51°30.814 2°32.478 148.4 13.2 149 33.2
2006-01-23 12:20:07 51°30.626 2°32.658 148 13 149 29.2
2006-01-23 12:21:07 51°30.439 2°32.839 149.2 13.1 151 24.8
2006-01-23 12:22:07 51°30.282 2°33.069 130.6 12.7 130 19.6
2006-01-23 12:23:07 51°30.173 2°33.356 120.7 12.6 121 16.3
2006-01-23 12:24:07 51°30.072 2°33.644 118.4 12.4 120 15.8
2006-01-23 12:25:07 51°29.964 2°33.92 119.4 12.3 121 18.8
2006-01-23 12:26:07 51°29.866 2°34.219 117.1 12.8 117 29.7
2006-01-23 12:27:07 51°29.809 2°34.542 99.6 12.6 99 35.7
2006-01-23 12:28:07 51°29.779 2°34.876 99.6 12.7 100 36.7
2006-01-23 12:29:07 51°29.748 2°35.21 98.9 12.7 98 37
2006-01-23 12:30:07 51°29.721 2°35.543 95.9 12.6 95 36.2
2006-01-23 12:31:07 51°29.692 2°35.876 99.4 12.6 98 32.7
2006-01-23 12:32:07 51°29.658 2°36.206 100.1 12.5 98 29.4
2006-01-23 12:33:07 51°29.632 2°36.534 97.5 12.3 96 27.4
2006-01-23 12:34:07 51°29.554 2°36.838 116.5 12.5 117 25.8
2006-01-23 12:35:07 51°29.424 2°37.103 129.2 12.8 130 26.2
2006-01-23 12:36:07 51°29.282 2°37.359 131.3 13 133 33.5
2006-01-23 12:37:07 51°29.124 2°37.593 147.1 13.3 149 35.9
2006-01-23 12:38:07 51°28.93 2°37.764 149.4 13.2 150 35.7
2006-01-23 12:39:07 51°28.74 2°37.942 148.7 13.1 150 34.7
2006-01-23 12:40:07 51°28.547 2°38.11 153.8 13.3 158 35.6
2006-01-23 12:41:07 51°28.337 2°38.222 160.7 13.4 161 36.2
2006-01-23 12:42:07 51°28.128 2°38.342 158.5 13.4 160 34.4
2006-01-23 12:43:07 51°27.916 2°38.451 161.2 13.4 163 32.2
2006-01-23 12:44:07 51°27.704 2°38.567 159.6 13.4 163 31.9
2006-01-23 12:45:07 51°27.492 2°38.682 158.9 13.5 160 31.6
2006-01-23 12:46:07 51°27.279 2°38.794 158.9 13.5 160 32.6
2006-01-23 12:47:07 51°27.066 2°38.904 160.9 13.5 163 33.2
2006-01-23 12:48:07 51°26.851 2°39.009 164.6 13.6 167 32
2006-01-23 12:49:07 51°26.633 2°39.103 164.4 13.7 165 31.5
2006-01-23 12:50:07 51°26.415 2°39.195 163.7 13.4 166 33.9
2006-01-23 12:51:07 51°26.2 2°39.287 164.7 13.4 166 34.2
2006-01-23 12:52:07 51°25.983 2°39.372 164.5 13.4 164 34.7
2006-01-23 12:53:07 51°25.766 2°39.458 164.3 13.4 168 29.8
2006-01-23 12:54:07 51°25.56 2°39.584 153.8 13.2 157 29
2006-01-23 12:55:07 51°25.359 2°39.728 151.6 13.2 153 28.3
2006-01-23 12:56:07 51°25.161 2°39.873 155.1 13.1 160 23.1
2006-01-23 12:57:07 51°24.964 2°40.018 153.8 13.1 158 25.3
2006-01-23 12:58:07 51°24.762 2°40.147 160.2 13.2 162 25.8
2006-01-23 12:59:07 51°24.553 2°40.264 158.2 13.3 158 24.8
2006-01-23 13:00:07 51°24.347 2°40.39 157.3 13.4 160 25.2
2006-01-23 13:01:07 51°24.137 2°40.501 161.8 13.4 164 25.9
2006-01-23 13:02:07 51°23.917 2°40.566 166.9 13.5 170 27.8
2006-01-23 13:03:05 51°23.705 2°40.631 165.8 13.3 168 28.1
2006-01-23 13:04:07 51°23.477 2°40.677 176.4 13.5 179 28.1
2006-01-23 13:05:07 51°23.251 2°40.624 190.4 14 193 28.4
2006-01-23 13:06:07 51°23.026 2°40.537 196.4 14.1 199 28.5
2006-01-23 13:07:07 51°22.816 2°40.379 209.4 14.2 208 27.9
2006-01-23 13:08:07 51°22.615 2°40.182 210.6 14 209 28.6
2006-01-23 13:09:07 51°22.415 2°39.987 210.3 14.2 210 28.6
2006-01-23 13:10:07 51°22.209 2°39.805 207.8 14 206 27.9
2006-01-23 13:11:07 51°21.986 2°39.737 181.1 13.7 181 27.4
2006-01-23 13:12:07 51°21.784 2°39.848 149.8 13.1 152 26.1
2006-01-23 13:13:07 51°21.595 2°40.019 146.9 13 148 26
2006-01-23 13:14:07 51°21.406 2°40.192 149 13 151 25.4
2006-01-23 13:15:07 51°21.256 2°40.424 129.4 12.7 130 25.8
2006-01-23 13:16:07 51°21.125 2°40.686 128.9 12.7 131 25.2
2006-01-23 13:17:07 51°20.99 2°40.941 132.4 12.6 132 25.5
2006-01-23 13:18:07 51°20.859 2°41.199 125.1 12.4 127 25.2
2006-01-23 13:19:05 51°20.762 2°41.473 121.6 12.3 124 24.6
2006-01-23 13:20:07 51°20.597 2°41.69 137.2 12.5 139 21.2
2006-01-23 13:21:07 51°20.468 2°41.946 118.8 12.3 119 18.7
2006-01-23 13:22:07 51°20.373 2°42.237 119 12.3 119 17.7
2006-01-23 13:23:07 51°20.272 2°42.524 116.9 12.3 116 22.3
2006-01-23 13:24:07 51°20.179 2°42.817 116.8 12.4 116 24.1
2006-01-23 13:25:07 51°20.079 2°43.105 120.7 12.3 122 25.5
2006-01-23 13:26:07 51°19.98 2°43.395 118.6 12.4 118 25.5
2006-01-23 13:27:05 51°19.884 2°43.674 116.6 12.3 113 24.5
2006-01-23 13:28:07 51°19.802 2°43.984 114.3 12.3 113 23.4
2006-01-23 13:29:07 51°19.721 2°44.282 114.8 12.3 114 22.8
2006-01-23 13:30:07 51°19.644 2°44.585 110.8 12.4 112 21.4
2006-01-23 13:31:07 51°19.59 2°44.9 103.6 12.4 105 20.4
2006-01-23 13:32:07 51°19.506 2°45.199 107.6 12.3 107 13.1
2006-01-23 13:33:07 51°19.442 2°45.504 108.7 12.3 109 10.7
2006-01-23 13:34:07 51°19.376 2°45.813 109.4 12.3 109 15.2
2006-01-23 13:35:07 51°19.307 2°46.12 110.5 12.4 109 18.5
2006-01-23 13:36:07 51°19.237 2°46.426 110.2 12.2 110 20.2
2006-01-23 13:37:07 51°19.164 2°46.731 112.5 12.3 113 20.2
2006-01-23 13:38:07 51°19.082 2°47.031 112.9 12.3 114 20.1
2006-01-23 13:39:07 51°18.998 2°47.329 113.7 12.3 114 18.8
2006-01-23 13:40:07 51°18.912 2°47.628 114.9 12.5 115 17.8
2006-01-23 13:41:07 51°18.825 2°47.926 115.1 12.3 117 15.9
2006-01-23 13:42:05 51°18.738 2°48.213 114.2 12.3 115 13.4
2006-01-23 13:43:07 51°18.648 2°48.522 113.9 12.4 114 11.7
2006-01-23 13:44:07 51°18.561 2°48.819 114.6 12.3 116 10.2
2006-01-23 13:45:07 51°18.472 2°49.114 115.7 12.4 117 9.8
2006-01-23 13:46:07 51°18.38 2°49.411 115.3 12.6 116 10.7
2006-01-23 13:47:07 51°18.288 2°49.708 114.9 12.5 118 12.6
2006-01-23 13:48:07 51°18.195 2°50.004 115.4 12.5 117 13.2
2006-01-23 13:49:07 51°18.098 2°50.296 115.8 12.5 119 12.9
2006-01-23 13:50:07 51°17.998 2°50.586 117.2 12.4 120 12
2006-01-23 13:51:07 51°17.89 2°50.873 119.9 12.6 123 11.2
2006-01-23 13:52:07 51°17.78 2°51.156 119.7 12.4 121 9.7
2006-01-23 13:53:07 51°17.671 2°51.443 119.7 12.7 121 9
2006-01-23 13:54:07 51°17.554 2°51.728 122.6 12.9 124 9.3
2006-01-23 13:55:07 51°17.418 2°52.002 129.1 13.1 132 9.7
2006-01-23 13:56:07 51°17.235 2°52.197 153.9 13.6 157 9.8
2006-01-23 13:57:07 51°17.029 2°52.339 154.2 13.3 157 9.2
2006-01-23 13:58:05 51°16.834 2°52.489 155.6 13.5 157 9.2
2006-01-23 13:59:07 51°16.617 2°52.633 155.8 13.8 156 10.3
2006-01-23 14:00:07 51°16.407 2°52.77 159 13.5 162 11.3
2006-01-23 14:01:07 51°16.201 2°52.895 154.9 13.1 158 11.3
2006-01-23 14:02:07 51°15.996 2°53.021 155.3 13.2 158 11.3
2006-01-23 14:03:07 51°15.792 2°53.151 153.9 13.2 156 10.7
2006-01-23 14:04:07 51°15.636 2°53.253 153.9 9.9 159 10.4
2006-01-23 14:05:07 51°15.45 2°53.349 156.9 12.6 158 9.8
2006-01-23 14:06:07 51°15.254 2°53.472 147.4 12.4 147 9.4
2006-01-23 14:07:07 51°15.095 2°53.685 139.3 12.5 140 8.7
2006-01-23 14:08:07 51°14.933 2°53.898 138.7 12.5 140 8.4
2006-01-23 14:09:07 51°14.771 2°54.119 137.9 12.8 140 9
2006-01-23 14:10:05 51°14.626 2°54.346 129.9 12.3 130 9.5
2006-01-23 14:11:07 51°14.509 2°54.629 121.1 12.4 121 9.5
2006-01-23 14:12:07 51°14.402 2°54.911 121.3 12.5 121 9.6
2006-01-23 14:13:07 51°14.304 2°55.186 126.2 11 126 9.8
2006-01-23 14:14:07 51°14.178 2°55.368 150.5 9.6 149 -999
2006-01-23 14:15:07 51°14.049 2°55.466 157.3 7.8 155 -999
2006-01-23 14:16:06 51°13.945 2°55.543 158 6.8 156 9.5
2006-01-23 14:17:10 51°13.845 2°55.621 155.4 5.6 152 9.4
2006-01-23 14:18:11 51°13.771 2°55.69 148.2 4.9 146 -999